createdAt,value
2022-09-24T00:01:40.426Z,16.50
2022-09-24T00:04:11.698Z,16.50
2022-09-24T00:06:44.946Z,16.50
2022-09-24T00:09:19.432Z,16.50
2022-09-24T00:11:47.108Z,16.50
2022-09-24T00:14:14.725Z,16.50
2022-09-24T00:16:44.021Z,16.40
2022-09-24T00:19:13.803Z,16.40
2022-09-24T00:21:41.847Z,16.50
2022-09-24T00:24:36.469Z,16.50
2022-09-24T00:27:05.815Z,16.50
2022-09-24T00:29:34.356Z,16.50
2022-09-24T00:32:02.962Z,16.50
2022-09-24T00:34:30.420Z,16.50
2022-09-24T00:36:57.861Z,16.50
2022-09-24T00:39:25.411Z,16.50
2022-09-24T00:41:52.851Z,16.50
2022-09-24T00:44:41.216Z,16.50
2022-09-24T00:47:27.522Z,16.50
2022-09-24T00:50:13.171Z,16.60
2022-09-24T00:52:45.703Z,16.50
2022-09-24T00:55:14.343Z,16.50
2022-09-24T00:57:42.254Z,16.50
2022-09-24T01:00:10.490Z,16.50
2022-09-24T01:02:41.311Z,16.50
2022-09-24T01:05:10.253Z,16.50
2022-09-24T01:07:37.695Z,16.50
2022-09-24T01:10:05.875Z,16.50
2022-09-24T01:12:53.480Z,16.50
2022-09-24T01:15:33.213Z,16.50
2022-09-24T01:18:07.271Z,16.50
2022-09-24T01:20:57.178Z,16.50
2022-09-24T01:24:02.261Z,16.50
2022-09-24T01:26:51.247Z,16.50
2022-09-24T01:29:42.231Z,16.50
2022-09-24T01:32:25.889Z,16.40
2022-09-24T01:35:21.566Z,16.40
2022-09-24T01:38:00.115Z,16.40
2022-09-24T01:40:29.742Z,16.40
2022-09-24T01:42:59.901Z,16.50
2022-09-24T01:45:31.168Z,16.40
2022-09-24T01:48:02.276Z,16.50
2022-09-24T01:50:34.890Z,16.40
2022-09-24T01:53:07.466Z,16.40
2022-09-24T01:55:39.013Z,16.40
2022-09-24T01:58:10.581Z,16.30
2022-09-24T02:00:44.097Z,16.40
2022-09-24T02:03:25.539Z,16.40
2022-09-24T02:05:59.111Z,16.30
2022-09-24T02:08:33.525Z,16.30
2022-09-24T02:11:08.184Z,16.30
2022-09-24T02:13:40.269Z,16.40
2022-09-24T02:16:14.704Z,16.30
2022-09-24T02:18:47.928Z,16.30
2022-09-24T02:21:17.948Z,16.30
2022-09-24T02:24:07.128Z,16.30
2022-09-24T02:26:34.679Z,16.30
2022-09-24T02:29:02.303Z,16.30
2022-09-24T02:31:35.080Z,16.30
2022-09-24T02:34:22.052Z,16.30
2022-09-24T02:36:52.001Z,16.30
2022-09-24T02:39:20.333Z,16.30
2022-09-24T02:41:49.326Z,16.30
2022-09-24T02:44:17.602Z,16.30
2022-09-24T02:46:45.972Z,16.40
2022-09-24T02:49:14.587Z,16.40
2022-09-24T02:51:42.685Z,16.40
2022-09-24T02:54:10.809Z,16.40
2022-09-24T02:56:38.324Z,16.40
2022-09-24T02:59:06.274Z,16.40
2022-09-24T03:01:34.835Z,16.40
2022-09-24T03:04:03.630Z,16.40
2022-09-24T03:06:31.150Z,16.40
2022-09-24T03:08:59.171Z,16.40
2022-09-24T03:11:26.603Z,16.40
2022-09-24T03:13:53.982Z,16.40
2022-09-24T03:16:21.481Z,16.40
2022-09-24T03:18:48.975Z,16.40
2022-09-24T03:21:19.038Z,16.30
2022-09-24T03:23:46.909Z,16.30
2022-09-24T03:26:14.528Z,16.30
2022-09-24T03:28:42.068Z,16.20
2022-09-24T03:31:09.865Z,16.20
2022-09-24T03:33:43.369Z,16.20
2022-09-24T03:36:19.777Z,16.20
2022-09-24T03:38:48.593Z,16.20
2022-09-24T03:41:17.804Z,16.20
2022-09-24T03:43:45.272Z,16.20
2022-09-24T03:46:13.907Z,16.20
2022-09-24T03:48:41.551Z,16.20
2022-09-24T03:51:11.919Z,16.20
2022-09-24T03:53:40.029Z,16.20
2022-09-24T03:56:08.614Z,16.20
2022-09-24T03:58:38.735Z,16.20
2022-09-24T04:01:07.303Z,16.20
2022-09-24T04:03:35.954Z,16.20
2022-09-24T04:06:04.506Z,16.20
2022-09-24T04:08:32.386Z,16.20
2022-09-24T04:11:00.292Z,16.20
2022-09-24T04:13:27.803Z,16.20
2022-09-24T04:15:55.293Z,16.10
2022-09-24T04:18:22.783Z,16.10
2022-09-24T04:20:50.161Z,16.00
2022-09-24T04:23:17.609Z,16.00
2022-09-24T04:25:45.021Z,16.00
2022-09-24T04:28:12.462Z,16.00
2022-09-24T04:30:40.176Z,15.90
2022-09-24T04:33:08.188Z,15.90
2022-09-24T04:35:36.620Z,15.90
2022-09-24T04:38:05.214Z,15.90
2022-09-24T04:40:33.320Z,15.90
2022-09-24T04:43:01.103Z,15.90
2022-09-24T04:45:28.480Z,15.90
2022-09-24T04:47:58.679Z,15.80
2022-09-24T04:50:28.807Z,15.80
2022-09-24T04:52:56.456Z,15.90
2022-09-24T04:55:25.512Z,15.90
2022-09-24T04:57:55.083Z,16.00
2022-09-24T05:00:22.731Z,16.00
2022-09-24T05:02:58.190Z,16.00
2022-09-24T05:05:26.232Z,16.00
2022-09-24T05:07:56.678Z,16.00
2022-09-24T05:10:26.072Z,16.00
2022-09-24T05:12:53.845Z,16.10
2022-09-24T05:15:21.773Z,16.10
2022-09-24T05:17:49.217Z,16.10
2022-09-24T05:20:17.004Z,16.20
2022-09-24T05:22:46.315Z,16.20
2022-09-24T05:25:15.148Z,16.20
2022-09-24T05:27:46.648Z,16.20
2022-09-24T05:30:14.608Z,16.20
2022-09-24T05:32:42.396Z,16.20
2022-09-24T05:35:10.244Z,16.30
2022-09-24T05:37:39.022Z,16.40
2022-09-24T05:40:26.091Z,16.40
2022-09-24T05:43:02.842Z,16.50
2022-09-24T05:45:31.246Z,16.60
2022-09-24T05:48:00.110Z,16.70
2022-09-24T05:50:27.871Z,16.90
2022-09-24T05:52:55.441Z,17.10
2022-09-24T05:55:22.816Z,17.20
2022-09-24T05:57:50.197Z,17.30
2022-09-24T06:00:17.637Z,17.40
2022-09-24T06:02:45.039Z,17.60
2022-09-24T06:05:12.930Z,17.70
2022-09-24T06:07:40.363Z,17.80
2022-09-24T06:10:08.228Z,17.70
2022-09-24T06:12:35.746Z,17.90
2022-09-24T06:15:03.655Z,18.10
2022-09-24T06:17:32.350Z,18.40
2022-09-24T06:19:59.807Z,18.60
2022-09-24T06:22:29.086Z,18.90
2022-09-24T06:24:56.630Z,19.10
2022-09-24T06:27:24.209Z,19.10
2022-09-24T06:29:51.676Z,19.00
2022-09-24T06:32:24.018Z,19.20
2022-09-24T06:34:54.422Z,19.60
2022-09-24T06:37:25.727Z,19.70
2022-09-24T06:39:53.937Z,19.60
2022-09-24T06:42:21.289Z,19.50
2022-09-24T06:44:48.678Z,19.30
2022-09-24T06:47:16.070Z,19.10
2022-09-24T06:49:43.518Z,19.00
2022-09-24T06:52:11.439Z,18.90
2022-09-24T06:54:38.910Z,18.80
2022-09-24T06:57:07.011Z,18.70
2022-09-24T06:59:34.380Z,18.70
2022-09-24T07:02:02.474Z,18.80
2022-09-24T07:04:29.897Z,19.00
2022-09-24T07:07:15.781Z,19.30
2022-09-24T07:09:43.270Z,19.50
2022-09-24T07:12:10.630Z,19.60
2022-09-24T07:14:37.990Z,19.70
2022-09-24T07:17:05.370Z,19.90
2022-09-24T07:19:32.743Z,20.30
2022-09-24T07:22:00.160Z,20.70
2022-09-24T07:24:27.548Z,20.80
2022-09-24T07:26:54.930Z,20.80
2022-09-24T07:29:22.659Z,20.80
2022-09-24T07:31:50.163Z,20.90
2022-09-24T07:34:17.951Z,21.00
2022-09-24T07:36:45.338Z,21.10
2022-09-24T07:39:12.702Z,21.10
2022-09-24T07:41:42.267Z,20.90
2022-09-24T07:44:10.062Z,20.80
2022-09-24T07:46:37.670Z,20.80
2022-09-24T07:49:05.275Z,20.90
2022-09-24T07:51:32.642Z,21.00
2022-09-24T07:54:00.111Z,21.10
2022-09-24T07:56:27.494Z,21.00
2022-09-24T07:58:55.173Z,21.00
2022-09-24T08:01:22.624Z,21.10
2022-09-24T08:03:52.175Z,21.10
2022-09-24T08:06:22.574Z,21.10
2022-09-24T08:08:52.532Z,20.90
2022-09-24T08:11:21.397Z,20.60
2022-09-24T08:13:49.066Z,20.30
2022-09-24T08:16:16.923Z,20.10
2022-09-24T08:18:44.578Z,20.00
2022-09-24T08:21:13.207Z,19.90
2022-09-24T08:23:41.719Z,19.90
2022-09-24T08:26:11.241Z,19.90
2022-09-24T08:28:40.526Z,19.90
2022-09-24T08:31:11.297Z,19.90
2022-09-24T08:33:41.202Z,19.90
2022-09-24T08:36:11.345Z,19.90
2022-09-24T08:38:41.298Z,19.80
2022-09-24T08:41:12.403Z,19.80
2022-09-24T08:43:57.859Z,19.80
2022-09-24T08:46:51.380Z,19.80
2022-09-24T08:49:25.894Z,19.80
2022-09-24T08:52:35.810Z,19.90
2022-09-24T08:55:13.299Z,20.10
2022-09-24T08:58:06.177Z,20.20
2022-09-24T09:00:47.112Z,20.30
2022-09-24T09:03:39.390Z,20.40
2022-09-24T09:06:37.637Z,20.30
2022-09-24T09:09:17.918Z,20.30
2022-09-24T09:11:50.168Z,20.20
2022-09-24T09:14:37.014Z,20.30
2022-09-24T09:17:26.327Z,20.40
2022-09-24T09:19:58.827Z,20.30
2022-09-24T09:22:31.006Z,20.40
2022-09-24T09:25:19.903Z,20.20
2022-09-24T09:27:56.255Z,20.00
2022-09-24T09:30:23.814Z,19.90
2022-09-24T09:33:12.602Z,19.70
2022-09-24T09:36:00.187Z,19.60
2022-09-24T09:38:34.079Z,19.50
2022-09-24T09:41:34.957Z,19.40
2022-09-24T09:44:17.390Z,19.30
2022-09-24T09:47:09.740Z,19.20
2022-09-24T09:49:39.075Z,19.20
2022-09-24T09:52:15.770Z,19.10
2022-09-24T09:54:45.128Z,19.10
2022-09-24T09:57:21.701Z,19.10
2022-09-24T09:59:51.137Z,19.10
2022-09-24T10:02:31.242Z,19.10
2022-09-24T10:05:02.134Z,19.10
2022-09-24T10:07:32.143Z,19.10
2022-09-24T10:10:03.055Z,19.10
2022-09-24T10:12:30.780Z,19.00
2022-09-24T10:15:04.146Z,19.10
2022-09-24T10:17:36.520Z,19.20
2022-09-24T10:20:15.391Z,19.20
2022-09-24T10:22:50.643Z,19.30
2022-09-24T10:25:24.456Z,19.30
2022-09-24T10:27:53.500Z,19.40
2022-09-24T10:30:36.330Z,19.40
2022-09-24T10:33:06.009Z,19.40
2022-09-24T10:35:36.179Z,19.40
2022-09-24T10:38:19.793Z,19.50
2022-09-24T10:40:48.072Z,19.60
2022-09-24T10:43:22.330Z,19.70
2022-09-24T10:45:49.609Z,19.70
2022-09-24T10:48:26.544Z,19.80
2022-09-24T10:51:08.556Z,19.80
2022-09-24T10:53:43.196Z,19.90
2022-09-24T10:56:27.063Z,19.80
2022-09-24T10:59:16.742Z,19.90
2022-09-24T11:02:08.959Z,20.10
2022-09-24T11:05:12.283Z,20.20
2022-09-24T11:07:56.537Z,20.20
2022-09-24T11:10:44.391Z,20.20
2022-09-24T11:13:23.839Z,20.20
2022-09-24T11:16:20.307Z,20.20
2022-09-24T11:19:36.721Z,20.10
2022-09-24T11:22:15.082Z,20.00
2022-09-24T11:25:11.213Z,20.00
2022-09-24T11:27:38.530Z,20.20
2022-09-24T11:30:19.332Z,20.40
2022-09-24T11:32:57.282Z,20.40
2022-09-24T11:35:50.831Z,20.40
2022-09-24T11:38:45.404Z,20.30
2022-09-24T11:41:31.490Z,20.20
2022-09-24T11:44:36.999Z,20.20
2022-09-24T11:47:16.655Z,20.00
2022-09-24T11:50:05.038Z,19.90
2022-09-24T11:52:45.343Z,20.00
2022-09-24T11:55:25.941Z,19.90
2022-09-24T11:58:18.428Z,19.90
2022-09-24T12:00:56.096Z,19.90
2022-09-24T12:03:54.314Z,19.90
2022-09-24T12:06:37.112Z,20.00
2022-09-24T12:09:16.365Z,20.20
2022-09-24T12:11:58.502Z,20.30
2022-09-24T12:14:30.453Z,20.20
2022-09-24T12:17:07.277Z,20.20
2022-09-24T12:19:47.364Z,20.30
2022-09-24T12:22:17.189Z,20.30
2022-09-24T12:24:53.919Z,20.30
2022-09-24T12:27:40.006Z,20.30
2022-09-24T12:30:50.790Z,20.40
2022-09-24T12:33:44.189Z,20.40
2022-09-24T12:36:23.831Z,20.30
2022-09-24T12:39:03.096Z,20.30
2022-09-24T12:41:32.451Z,20.30
2022-09-24T12:44:06.032Z,20.30
2022-09-24T12:46:53.191Z,20.30
2022-09-24T12:49:26.799Z,20.20
2022-09-24T12:51:56.341Z,20.10
2022-09-24T12:54:33.784Z,20.00
2022-09-24T12:57:05.229Z,19.90
2022-09-24T12:59:32.602Z,19.90
2022-09-24T13:02:23.842Z,19.80
2022-09-24T13:05:15.061Z,19.70
2022-09-24T13:07:42.610Z,19.70
2022-09-24T13:10:35.621Z,19.70
2022-09-24T13:13:15.567Z,19.60
2022-09-24T13:15:43.551Z,19.70
2022-09-24T13:18:11.180Z,19.70
2022-09-24T13:20:43.839Z,19.80
2022-09-24T13:23:19.623Z,19.90
2022-09-24T13:25:58.898Z,19.90
2022-09-24T13:28:37.806Z,19.90
2022-09-24T13:31:22.611Z,20.00
2022-09-24T13:33:55.080Z,19.90
2022-09-24T13:36:25.540Z,19.90
2022-09-24T13:39:29.699Z,19.80
2022-09-24T13:42:02.966Z,19.70
2022-09-24T13:44:57.815Z,19.70
2022-09-24T13:47:47.876Z,19.50
2022-09-24T13:50:20.763Z,19.40
2022-09-24T13:52:54.323Z,19.20
2022-09-24T13:55:24.032Z,19.10
2022-09-24T13:57:51.564Z,19.10
2022-09-24T14:00:22.053Z,19.10
2022-09-24T14:02:58.329Z,19.10
2022-09-24T14:05:27.065Z,19.00
2022-09-24T14:08:11.022Z,19.10
2022-09-24T14:10:40.172Z,19.10
2022-09-24T14:13:26.797Z,19.00
2022-09-24T14:16:07.468Z,19.00
2022-09-24T14:18:37.054Z,19.00
2022-09-24T14:21:19.452Z,18.90
2022-09-24T14:24:00.132Z,18.90
2022-09-24T14:27:02.714Z,19.00
2022-09-24T14:29:50.202Z,19.00
2022-09-24T14:32:32.152Z,19.10
2022-09-24T14:35:31.435Z,19.10
2022-09-24T14:38:13.415Z,19.10
2022-09-24T14:41:18.413Z,19.10
2022-09-24T14:43:56.548Z,19.10
2022-09-24T14:46:49.664Z,19.00
2022-09-24T14:49:30.142Z,19.00
2022-09-24T14:52:03.235Z,19.00
2022-09-24T14:54:37.673Z,19.00
2022-09-24T14:57:20.112Z,19.10
2022-09-24T14:59:47.641Z,19.10
2022-09-24T15:02:21.200Z,19.10
2022-09-24T15:04:55.435Z,19.00
2022-09-24T15:07:25.742Z,19.00
2022-09-24T15:09:56.577Z,18.90
2022-09-24T15:12:31.872Z,18.80
2022-09-24T15:15:24.971Z,18.70
2022-09-24T15:17:52.595Z,18.60
2022-09-24T15:20:19.960Z,18.60
2022-09-24T15:22:48.174Z,18.60
2022-09-24T15:25:16.840Z,18.60
2022-09-24T15:27:45.468Z,18.60
2022-09-24T15:30:20.958Z,18.60
2022-09-24T15:32:51.683Z,18.60
2022-09-24T15:35:19.101Z,18.50
2022-09-24T15:37:46.804Z,18.50
2022-09-24T15:40:23.391Z,18.40
2022-09-24T15:42:51.564Z,18.40
2022-09-24T15:45:24.810Z,18.30
2022-09-24T15:47:53.291Z,18.30
2022-09-24T15:50:22.581Z,18.30
2022-09-24T15:52:56.723Z,18.30
2022-09-24T15:55:24.383Z,18.20
2022-09-24T15:57:51.975Z,18.20
2022-09-24T16:00:21.797Z,18.10
2022-09-24T16:02:57.447Z,18.10
2022-09-24T16:05:26.001Z,18.10
2022-09-24T16:07:53.547Z,18.00
2022-09-24T16:10:20.941Z,18.00
2022-09-24T16:12:48.366Z,17.90
2022-09-24T16:15:16.693Z,17.90
2022-09-24T16:17:44.207Z,17.90
2022-09-24T16:20:11.614Z,17.90
2022-09-24T16:22:39.076Z,17.90
2022-09-24T16:25:06.982Z,17.90
2022-09-24T16:27:35.391Z,17.80
2022-09-24T16:30:04.203Z,17.80
2022-09-24T16:32:31.881Z,17.80
2022-09-24T16:34:59.410Z,17.70
2022-09-24T16:37:26.923Z,17.70
2022-09-24T16:39:55.140Z,17.60
2022-09-24T16:42:26.226Z,17.70
2022-09-24T16:44:53.669Z,17.60
2022-09-24T16:47:21.342Z,17.60
2022-09-24T16:49:48.746Z,17.60
2022-09-24T16:52:16.112Z,17.60
2022-09-24T16:54:43.595Z,17.60
2022-09-24T16:57:11.039Z,17.50
2022-09-24T16:59:38.427Z,17.50
2022-09-24T17:02:05.936Z,17.60
2022-09-24T17:04:34.361Z,17.60
2022-09-24T17:07:01.891Z,17.60
2022-09-24T17:09:47.959Z,17.60
2022-09-24T17:12:15.334Z,17.60
2022-09-24T17:14:42.733Z,17.60
2022-09-24T17:17:11.506Z,17.60
2022-09-24T17:19:38.914Z,17.50
2022-09-24T17:22:06.335Z,17.50
2022-09-24T17:24:39.722Z,17.50
2022-09-24T17:27:08.231Z,17.30
2022-09-24T17:29:36.129Z,17.30
2022-09-24T17:32:03.626Z,17.30
2022-09-24T17:34:31.101Z,17.20
2022-09-24T17:36:59.759Z,17.30
2022-09-24T17:39:27.937Z,17.30
2022-09-24T17:41:55.310Z,17.30
2022-09-24T17:44:22.748Z,17.30
2022-09-24T17:46:50.205Z,17.30
2022-09-24T17:49:17.763Z,17.30
2022-09-24T17:51:46.583Z,17.30
2022-09-24T17:54:15.977Z,17.20
2022-09-24T17:56:43.411Z,17.10
2022-09-24T17:59:13.125Z,17.10
2022-09-24T18:01:43.049Z,17.00
2022-09-24T18:04:16.380Z,17.00
2022-09-24T18:06:46.135Z,16.90
2022-09-24T18:09:15.154Z,16.80
2022-09-24T18:11:52.266Z,16.80
2022-09-24T18:14:22.209Z,16.80
2022-09-24T18:16:50.291Z,16.80
2022-09-24T18:19:18.459Z,16.90
2022-09-24T18:21:49.218Z,16.90
2022-09-24T18:24:16.986Z,16.80
2022-09-24T18:26:47.407Z,16.80
2022-09-24T18:29:17.704Z,16.80
2022-09-24T18:31:45.491Z,16.80
2022-09-24T18:34:14.847Z,16.70
2022-09-24T18:36:43.711Z,16.80
2022-09-24T18:39:13.792Z,16.70
2022-09-24T18:41:42.601Z,16.70
2022-09-24T18:44:11.130Z,16.70
2022-09-24T18:46:39.470Z,16.60
2022-09-24T18:49:09.206Z,16.60
2022-09-24T18:51:37.774Z,16.50
2022-09-24T18:54:13.531Z,16.40
2022-09-24T18:56:41.406Z,16.40
2022-09-24T18:59:15.987Z,16.50
2022-09-24T19:01:44.591Z,16.40
2022-09-24T19:04:13.948Z,16.40
2022-09-24T19:06:43.554Z,16.30
2022-09-24T19:09:13.479Z,16.30
2022-09-24T19:11:42.156Z,16.30
2022-09-24T19:14:12.134Z,16.20
2022-09-24T19:16:40.201Z,16.20
2022-09-24T19:19:07.789Z,16.20
2022-09-24T19:21:35.175Z,16.20
2022-09-24T19:24:02.571Z,16.20
2022-09-24T19:26:31.704Z,16.20
2022-09-24T19:29:00.110Z,16.20
2022-09-24T19:31:36.662Z,16.10
2022-09-24T19:34:06.282Z,16.10
2022-09-24T19:36:42.963Z,16.00
2022-09-24T19:39:13.321Z,16.00
2022-09-24T19:41:40.700Z,15.90
2022-09-24T19:44:09.408Z,16.00
2022-09-24T19:46:38.469Z,16.00
2022-09-24T19:49:06.339Z,15.90
2022-09-24T19:51:35.233Z,15.90
2022-09-24T19:54:07.858Z,15.90
2022-09-24T19:56:36.643Z,15.90
2022-09-24T19:59:05.394Z,15.90
2022-09-24T20:01:34.028Z,16.00
2022-09-24T20:04:05.195Z,16.00
2022-09-24T20:06:34.058Z,16.00
2022-09-24T20:09:01.945Z,16.00
2022-09-24T20:11:32.314Z,16.10
2022-09-24T20:14:00.352Z,16.00
2022-09-24T20:16:32.830Z,16.10
2022-09-24T20:19:02.552Z,16.10
2022-09-24T20:21:34.599Z,16.00
2022-09-24T20:24:03.777Z,16.10
2022-09-24T20:26:50.690Z,16.00
2022-09-24T20:29:19.797Z,16.10
2022-09-24T20:31:52.448Z,16.10
2022-09-24T20:34:22.524Z,16.10
2022-09-24T20:36:50.822Z,16.20
2022-09-24T20:39:19.283Z,16.20
2022-09-24T20:41:47.682Z,16.20
2022-09-24T20:44:15.058Z,16.20
2022-09-24T20:46:42.507Z,16.20
2022-09-24T20:49:18.265Z,16.10
2022-09-24T20:51:45.790Z,16.00
2022-09-24T20:54:13.172Z,15.90
2022-09-24T20:56:40.766Z,15.70
2022-09-24T20:59:09.289Z,15.80
2022-09-24T21:01:37.265Z,15.70
2022-09-24T21:04:05.573Z,15.60
2022-09-24T21:06:33.090Z,15.60
2022-09-24T21:09:00.495Z,15.50
2022-09-24T21:11:27.951Z,15.50
2022-09-24T21:14:00.909Z,15.50
2022-09-24T21:16:33.198Z,15.50
2022-09-24T21:19:01.132Z,15.50
2022-09-24T21:21:30.668Z,15.40
2022-09-24T21:23:59.966Z,15.40
2022-09-24T21:26:29.644Z,15.30
2022-09-24T21:29:12.096Z,15.40
2022-09-24T21:31:42.161Z,15.30
2022-09-24T21:34:11.022Z,15.30
2022-09-24T21:36:44.577Z,15.30
2022-09-24T21:39:20.702Z,15.30
2022-09-24T21:41:50.300Z,15.30
2022-09-24T21:44:18.530Z,15.30
2022-09-24T21:46:46.758Z,15.20
2022-09-24T21:49:15.867Z,15.30
2022-09-24T21:51:43.480Z,15.30
2022-09-24T21:54:17.519Z,15.30
2022-09-24T21:56:46.187Z,15.30
2022-09-24T21:59:33.105Z,15.30
2022-09-24T22:02:01.142Z,15.30
2022-09-24T22:04:28.837Z,15.20
2022-09-24T22:06:56.203Z,15.30
2022-09-24T22:09:24.791Z,15.30
2022-09-24T22:11:52.827Z,15.20
2022-09-24T22:14:20.299Z,15.30
2022-09-24T22:16:47.759Z,15.20
2022-09-24T22:19:15.196Z,15.20
2022-09-24T22:21:42.631Z,15.20
2022-09-24T22:24:10.272Z,15.20
2022-09-24T22:26:38.390Z,15.20
2022-09-24T22:29:05.902Z,15.20
2022-09-24T22:31:33.768Z,15.10
2022-09-24T22:34:20.197Z,15.20
2022-09-24T22:36:48.047Z,15.10
2022-09-24T22:39:15.645Z,15.20
2022-09-24T22:41:43.342Z,15.10
2022-09-24T22:44:11.562Z,15.10
2022-09-24T22:46:39.655Z,15.10
2022-09-24T22:49:07.899Z,15.10
2022-09-24T22:51:36.122Z,15.20
2022-09-24T22:54:03.587Z,15.20
2022-09-24T22:56:31.121Z,15.20
2022-09-24T22:59:00.590Z,15.30
2022-09-24T23:01:33.781Z,15.30
2022-09-24T23:04:02.374Z,15.30
2022-09-24T23:06:31.483Z,15.30
2022-09-24T23:08:59.110Z,15.30
2022-09-24T23:11:32.795Z,15.30
2022-09-24T23:14:10.666Z,15.30
2022-09-24T23:16:38.812Z,15.40
2022-09-24T23:19:11.102Z,15.40
2022-09-24T23:21:38.488Z,15.40
2022-09-24T23:24:17.422Z,15.50
2022-09-24T23:26:45.795Z,15.50
2022-09-24T23:29:13.748Z,15.50
2022-09-24T23:31:41.229Z,15.60
2022-09-24T23:34:08.709Z,15.60
2022-09-24T23:36:36.513Z,15.60
2022-09-24T23:39:04.726Z,15.60
2022-09-24T23:41:32.351Z,15.50
2022-09-24T23:44:00.594Z,15.50
2022-09-24T23:46:28.108Z,15.50
2022-09-24T23:48:56.121Z,15.50
2022-09-24T23:51:23.690Z,15.50
2022-09-24T23:53:51.605Z,15.50
2022-09-24T23:56:19.804Z,15.50
2022-09-24T23:58:47.425Z,15.60
